sensor_id;sensor_type;location;lat;lon;timestamp;P1;durP1;ratioP1;P2;durP2;ratioP2
19043;SDS011;9654;52.302;8.120;2023-05-21T00:01:00;9.83;;;4.83;;
19043;SDS011;9654;52.302;8.120;2023-05-21T00:03:29;8.53;;;5.40;;
19043;SDS011;9654;52.302;8.120;2023-05-21T00:05:56;9.00;;;5.30;;
19043;SDS011;9654;52.302;8.120;2023-05-21T00:08:25;6.00;;;5.03;;
19043;SDS011;9654;52.302;8.120;2023-05-21T00:10:52;8.13;;;5.23;;
19043;SDS011;9654;52.302;8.120;2023-05-21T00:13:19;9.50;;;5.50;;
19043;SDS011;9654;52.302;8.120;2023-05-21T00:15:47;7.77;;;5.43;;
19043;SDS011;9654;52.302;8.120;2023-05-21T00:18:13;8.37;;;5.03;;
19043;SDS011;9654;52.302;8.120;2023-05-21T00:20:40;7.13;;;5.20;;
19043;SDS011;9654;52.302;8.120;2023-05-21T00:23:07;6.13;;;4.97;;
19043;SDS011;9654;52.302;8.120;2023-05-21T00:25:34;8.30;;;5.50;;
19043;SDS011;9654;52.302;8.120;2023-05-21T00:28:01;9.17;;;5.63;;
19043;SDS011;9654;52.302;8.120;2023-05-21T00:30:27;6.30;;;4.83;;
19043;SDS011;9654;52.302;8.120;2023-05-21T00:32:56;8.07;;;5.43;;
19043;SDS011;9654;52.302;8.120;2023-05-21T00:35:26;10.30;;;5.33;;
19043;SDS011;9654;52.302;8.120;2023-05-21T00:37:53;6.73;;;5.40;;
19043;SDS011;9654;52.302;8.120;2023-05-21T00:40:19;6.00;;;4.93;;
19043;SDS011;9654;52.302;8.120;2023-05-21T00:42:46;6.37;;;4.70;;
19043;SDS011;9654;52.302;8.120;2023-05-21T00:45:13;8.00;;;5.63;;
19043;SDS011;9654;52.302;8.120;2023-05-21T00:47:40;6.27;;;5.27;;
19043;SDS011;9654;52.302;8.120;2023-05-21T00:50:09;6.63;;;5.20;;
19043;SDS011;9654;52.302;8.120;2023-05-21T00:52:38;5.90;;;5.30;;
19043;SDS011;9654;52.302;8.120;2023-05-21T00:55:07;9.23;;;5.70;;
19043;SDS011;9654;52.302;8.120;2023-05-21T00:57:34;9.23;;;6.17;;
19043;SDS011;9654;52.302;8.120;2023-05-21T01:00:02;9.73;;;5.93;;
19043;SDS011;9654;52.302;8.120;2023-05-21T01:02:32;9.43;;;5.43;;
19043;SDS011;9654;52.302;8.120;2023-05-21T01:05:02;7.57;;;5.23;;
19043;SDS011;9654;52.302;8.120;2023-05-21T01:07:32;8.57;;;5.67;;
19043;SDS011;9654;52.302;8.120;2023-05-21T01:10:00;7.77;;;5.33;;
19043;SDS011;9654;52.302;8.120;2023-05-21T01:12:28;9.70;;;5.33;;
19043;SDS011;9654;52.302;8.120;2023-05-21T01:14:56;10.20;;;6.23;;
19043;SDS011;9654;52.302;8.120;2023-05-21T01:17:27;7.17;;;5.67;;
19043;SDS011;9654;52.302;8.120;2023-05-21T01:20:04;9.37;;;5.97;;
19043;SDS011;9654;52.302;8.120;2023-05-21T01:22:36;8.37;;;6.30;;
19043;SDS011;9654;52.302;8.120;2023-05-21T01:25:09;7.93;;;5.93;;
19043;SDS011;9654;52.302;8.120;2023-05-21T01:27:36;8.30;;;5.47;;
19043;SDS011;9654;52.302;8.120;2023-05-21T01:30:03;7.27;;;5.83;;
19043;SDS011;9654;52.302;8.120;2023-05-21T01:32:32;8.33;;;5.57;;
19043;SDS011;9654;52.302;8.120;2023-05-21T01:35:03;11.27;;;6.07;;
19043;SDS011;9654;52.302;8.120;2023-05-21T01:37:34;10.50;;;5.73;;
19043;SDS011;9654;52.302;8.120;2023-05-21T01:40:04;7.10;;;5.73;;
19043;SDS011;9654;52.302;8.120;2023-05-21T01:42:37;7.77;;;5.60;;
19043;SDS011;9654;52.302;8.120;2023-05-21T01:45:07;9.10;;;6.23;;
19043;SDS011;9654;52.302;8.120;2023-05-21T01:47:34;10.93;;;6.50;;
19043;SDS011;9654;52.302;8.120;2023-05-21T01:50:03;10.17;;;6.00;;
19043;SDS011;9654;52.302;8.120;2023-05-21T01:52:31;8.57;;;6.13;;
19043;SDS011;9654;52.302;8.120;2023-05-21T01:54:58;6.60;;;5.83;;
19043;SDS011;9654;52.302;8.120;2023-05-21T01:57:26;9.43;;;5.83;;
19043;SDS011;9654;52.302;8.120;2023-05-21T01:59:53;9.17;;;6.03;;
19043;SDS011;9654;52.302;8.120;2023-05-21T02:02:22;7.53;;;5.57;;
19043;SDS011;9654;52.302;8.120;2023-05-21T02:04:48;9.37;;;5.93;;
19043;SDS011;9654;52.302;8.120;2023-05-21T02:07:16;10.43;;;5.83;;
19043;SDS011;9654;52.302;8.120;2023-05-21T02:09:43;9.60;;;6.17;;
19043;SDS011;9654;52.302;8.120;2023-05-21T02:12:10;9.13;;;6.43;;
19043;SDS011;9654;52.302;8.120;2023-05-21T02:14:38;7.83;;;6.03;;
19043;SDS011;9654;52.302;8.120;2023-05-21T02:17:05;12.23;;;7.10;;
19043;SDS011;9654;52.302;8.120;2023-05-21T02:19:33;8.23;;;6.47;;
19043;SDS011;9654;52.302;8.120;2023-05-21T02:21:59;7.63;;;6.17;;
19043;SDS011;9654;52.302;8.120;2023-05-21T02:24:26;13.07;;;6.40;;
19043;SDS011;9654;52.302;8.120;2023-05-21T02:26:53;8.40;;;6.30;;
19043;SDS011;9654;52.302;8.120;2023-05-21T02:29:20;6.63;;;5.87;;
19043;SDS011;9654;52.302;8.120;2023-05-21T02:31:48;8.17;;;6.23;;
19043;SDS011;9654;52.302;8.120;2023-05-21T02:34:15;9.73;;;6.40;;
19043;SDS011;9654;52.302;8.120;2023-05-21T02:36:44;7.93;;;6.43;;
19043;SDS011;9654;52.302;8.120;2023-05-21T02:39:12;10.07;;;6.67;;
19043;SDS011;9654;52.302;8.120;2023-05-21T02:41:39;9.80;;;6.77;;
19043;SDS011;9654;52.302;8.120;2023-05-21T02:44:06;9.50;;;7.30;;
19043;SDS011;9654;52.302;8.120;2023-05-21T02:46:32;14.10;;;7.13;;
19043;SDS011;9654;52.302;8.120;2023-05-21T02:49:00;10.23;;;6.67;;
19043;SDS011;9654;52.302;8.120;2023-05-21T02:51:27;10.00;;;6.77;;
19043;SDS011;9654;52.302;8.120;2023-05-21T02:53:54;13.83;;;7.17;;
19043;SDS011;9654;52.302;8.120;2023-05-21T02:56:21;10.83;;;6.80;;
19043;SDS011;9654;52.302;8.120;2023-05-21T02:58:48;9.60;;;7.03;;
19043;SDS011;9654;52.302;8.120;2023-05-21T03:01:15;12.07;;;7.57;;
19043;SDS011;9654;52.302;8.120;2023-05-21T03:03:42;10.73;;;7.17;;
19043;SDS011;9654;52.302;8.120;2023-05-21T03:06:10;10.87;;;7.30;;
19043;SDS011;9654;52.302;8.120;2023-05-21T03:08:38;7.70;;;6.63;;
19043;SDS011;9654;52.302;8.120;2023-05-21T03:11:05;8.73;;;7.07;;
19043;SDS011;9654;52.302;8.120;2023-05-21T03:13:31;10.23;;;7.10;;
19043;SDS011;9654;52.302;8.120;2023-05-21T03:15:58;10.63;;;7.07;;
19043;SDS011;9654;52.302;8.120;2023-05-21T03:18:25;11.10;;;6.80;;
19043;SDS011;9654;52.302;8.120;2023-05-21T03:20:52;9.70;;;7.17;;
19043;SDS011;9654;52.302;8.120;2023-05-21T03:23:21;11.47;;;7.27;;
19043;SDS011;9654;52.302;8.120;2023-05-21T03:25:47;10.87;;;7.00;;
19043;SDS011;9654;52.302;8.120;2023-05-21T03:28:14;11.63;;;6.77;;
19043;SDS011;9654;52.302;8.120;2023-05-21T03:30:42;12.50;;;7.43;;
19043;SDS011;9654;52.302;8.120;2023-05-21T03:33:10;8.70;;;7.10;;
19043;SDS011;9654;52.302;8.120;2023-05-21T03:35:37;13.47;;;7.77;;
19043;SDS011;9654;52.302;8.120;2023-05-21T03:38:04;11.90;;;7.40;;
19043;SDS011;9654;52.302;8.120;2023-05-21T03:40:32;9.47;;;6.77;;
19043;SDS011;9654;52.302;8.120;2023-05-21T03:42:59;10.53;;;7.80;;
19043;SDS011;9654;52.302;8.120;2023-05-21T03:45:26;8.20;;;6.23;;
19043;SDS011;9654;52.302;8.120;2023-05-21T03:47:52;9.33;;;6.70;;
19043;SDS011;9654;52.302;8.120;2023-05-21T03:50:19;11.97;;;7.33;;
19043;SDS011;9654;52.302;8.120;2023-05-21T03:52:46;11.40;;;7.10;;
19043;SDS011;9654;52.302;8.120;2023-05-21T03:55:13;11.67;;;7.00;;
19043;SDS011;9654;52.302;8.120;2023-05-21T03:57:41;10.63;;;6.80;;
19043;SDS011;9654;52.302;8.120;2023-05-21T04:00:08;10.13;;;7.13;;
19043;SDS011;9654;52.302;8.120;2023-05-21T04:02:35;12.43;;;7.30;;
19043;SDS011;9654;52.302;8.120;2023-05-21T04:05:02;12.53;;;7.60;;
19043;SDS011;9654;52.302;8.120;2023-05-21T04:07:29;14.43;;;7.03;;
19043;SDS011;9654;52.302;8.120;2023-05-21T04:09:56;9.40;;;6.87;;
19043;SDS011;9654;52.302;8.120;2023-05-21T04:12:22;13.47;;;7.37;;
19043;SDS011;9654;52.302;8.120;2023-05-21T04:14:50;10.30;;;7.30;;
19043;SDS011;9654;52.302;8.120;2023-05-21T04:17:17;12.27;;;7.80;;
19043;SDS011;9654;52.302;8.120;2023-05-21T04:19:44;12.53;;;6.93;;
19043;SDS011;9654;52.302;8.120;2023-05-21T04:22:11;10.27;;;6.63;;
19043;SDS011;9654;52.302;8.120;2023-05-21T04:24:38;11.80;;;6.50;;
19043;SDS011;9654;52.302;8.120;2023-05-21T04:27:05;11.33;;;6.53;;
19043;SDS011;9654;52.302;8.120;2023-05-21T04:29:33;12.13;;;7.37;;
19043;SDS011;9654;52.302;8.120;2023-05-21T04:32:03;8.13;;;6.37;;
19043;SDS011;9654;52.302;8.120;2023-05-21T04:34:30;12.27;;;7.13;;
19043;SDS011;9654;52.302;8.120;2023-05-21T04:36:58;11.67;;;6.90;;
19043;SDS011;9654;52.302;8.120;2023-05-21T04:39:24;12.67;;;7.00;;
19043;SDS011;9654;52.302;8.120;2023-05-21T04:41:52;12.33;;;7.03;;
19043;SDS011;9654;52.302;8.120;2023-05-21T04:44:20;9.47;;;6.67;;
19043;SDS011;9654;52.302;8.120;2023-05-21T04:46:47;8.13;;;6.40;;
19043;SDS011;9654;52.302;8.120;2023-05-21T04:49:15;8.63;;;6.00;;
19043;SDS011;9654;52.302;8.120;2023-05-21T04:51:42;10.30;;;7.03;;
19043;SDS011;9654;52.302;8.120;2023-05-21T04:54:09;11.10;;;6.60;;
19043;SDS011;9654;52.302;8.120;2023-05-21T04:56:36;9.13;;;6.97;;
19043;SDS011;9654;52.302;8.120;2023-05-21T04:59:02;9.53;;;6.43;;
19043;SDS011;9654;52.302;8.120;2023-05-21T05:01:30;10.33;;;6.73;;
19043;SDS011;9654;52.302;8.120;2023-05-21T05:03:59;8.53;;;6.57;;
19043;SDS011;9654;52.302;8.120;2023-05-21T05:06:27;9.00;;;6.50;;
19043;SDS011;9654;52.302;8.120;2023-05-21T05:08:54;8.73;;;6.50;;
19043;SDS011;9654;52.302;8.120;2023-05-21T05:11:20;10.77;;;6.47;;
19043;SDS011;9654;52.302;8.120;2023-05-21T05:13:47;7.10;;;5.83;;
19043;SDS011;9654;52.302;8.120;2023-05-21T05:16:14;11.40;;;7.30;;
19043;SDS011;9654;52.302;8.120;2023-05-21T05:18:42;11.00;;;6.67;;
19043;SDS011;9654;52.302;8.120;2023-05-21T05:21:09;9.77;;;6.40;;
19043;SDS011;9654;52.302;8.120;2023-05-21T05:23:37;9.30;;;6.10;;
19043;SDS011;9654;52.302;8.120;2023-05-21T05:26:04;21.33;;;8.07;;
19043;SDS011;9654;52.302;8.120;2023-05-21T05:28:30;9.33;;;6.10;;
19043;SDS011;9654;52.302;8.120;2023-05-21T05:30:57;9.43;;;6.40;;
19043;SDS011;9654;52.302;8.120;2023-05-21T05:33:24;9.33;;;6.67;;
19043;SDS011;9654;52.302;8.120;2023-05-21T05:35:50;10.60;;;6.23;;
19043;SDS011;9654;52.302;8.120;2023-05-21T05:38:17;8.97;;;6.00;;
19043;SDS011;9654;52.302;8.120;2023-05-21T05:40:45;11.00;;;6.83;;
19043;SDS011;9654;52.302;8.120;2023-05-21T05:43:12;9.47;;;6.10;;
19043;SDS011;9654;52.302;8.120;2023-05-21T05:45:39;10.53;;;6.17;;
19043;SDS011;9654;52.302;8.120;2023-05-21T05:48:06;8.80;;;5.80;;
19043;SDS011;9654;52.302;8.120;2023-05-21T05:50:32;11.27;;;6.33;;
19043;SDS011;9654;52.302;8.120;2023-05-21T05:52:59;9.60;;;5.63;;
19043;SDS011;9654;52.302;8.120;2023-05-21T05:55:26;9.83;;;5.87;;
19043;SDS011;9654;52.302;8.120;2023-05-21T05:57:54;11.50;;;6.30;;
19043;SDS011;9654;52.302;8.120;2023-05-21T06:00:21;10.73;;;6.60;;
19043;SDS011;9654;52.302;8.120;2023-05-21T06:02:48;9.03;;;6.63;;
19043;SDS011;9654;52.302;8.120;2023-05-21T06:05:15;7.63;;;5.70;;
19043;SDS011;9654;52.302;8.120;2023-05-21T06:07:41;10.77;;;6.30;;
19043;SDS011;9654;52.302;8.120;2023-05-21T06:10:08;12.20;;;7.00;;
19043;SDS011;9654;52.302;8.120;2023-05-21T06:12:35;7.73;;;6.40;;
19043;SDS011;9654;52.302;8.120;2023-05-21T06:15:04;14.83;;;6.87;;
19043;SDS011;9654;52.302;8.120;2023-05-21T06:17:31;9.30;;;6.57;;
19043;SDS011;9654;52.302;8.120;2023-05-21T06:19:58;12.53;;;6.73;;
19043;SDS011;9654;52.302;8.120;2023-05-21T06:22:25;10.60;;;6.30;;
19043;SDS011;9654;52.302;8.120;2023-05-21T06:24:51;11.27;;;7.00;;
19043;SDS011;9654;52.302;8.120;2023-05-21T06:27:18;10.13;;;6.37;;
19043;SDS011;9654;52.302;8.120;2023-05-21T06:29:45;11.30;;;7.30;;
19043;SDS011;9654;52.302;8.120;2023-05-21T06:32:13;8.07;;;6.70;;
19043;SDS011;9654;52.302;8.120;2023-05-21T06:34:40;12.13;;;6.93;;
19043;SDS011;9654;52.302;8.120;2023-05-21T06:37:06;10.57;;;6.60;;
19043;SDS011;9654;52.302;8.120;2023-05-21T06:39:33;10.87;;;6.17;;
19043;SDS011;9654;52.302;8.120;2023-05-21T06:42:00;10.33;;;6.10;;
19043;SDS011;9654;52.302;8.120;2023-05-21T06:44:27;11.03;;;6.60;;
19043;SDS011;9654;52.302;8.120;2023-05-21T06:46:53;11.10;;;7.60;;
19043;SDS011;9654;52.302;8.120;2023-05-21T06:49:22;11.53;;;6.57;;
19043;SDS011;9654;52.302;8.120;2023-05-21T06:51:48;9.57;;;6.67;;
19043;SDS011;9654;52.302;8.120;2023-05-21T06:54:15;9.67;;;6.90;;
19043;SDS011;9654;52.302;8.120;2023-05-21T06:56:42;9.50;;;7.03;;
19043;SDS011;9654;52.302;8.120;2023-05-21T06:59:09;13.00;;;7.10;;
19043;SDS011;9654;52.302;8.120;2023-05-21T07:01:36;10.37;;;6.90;;
19043;SDS011;9654;52.302;8.120;2023-05-21T07:04:06;12.63;;;7.40;;
19043;SDS011;9654;52.302;8.120;2023-05-21T07:06:37;8.67;;;6.57;;
19043;SDS011;9654;52.302;8.120;2023-05-21T07:09:04;10.17;;;6.57;;
19043;SDS011;9654;52.302;8.120;2023-05-21T07:11:31;9.63;;;6.60;;
19043;SDS011;9654;52.302;8.120;2023-05-21T07:13:58;11.70;;;6.80;;
19043;SDS011;9654;52.302;8.120;2023-05-21T07:16:25;13.23;;;7.60;;
19043;SDS011;9654;52.302;8.120;2023-05-21T07:18:52;11.13;;;6.93;;
19043;SDS011;9654;52.302;8.120;2023-05-21T07:21:19;9.10;;;7.03;;
19043;SDS011;9654;52.302;8.120;2023-05-21T07:23:47;10.93;;;6.43;;
19043;SDS011;9654;52.302;8.120;2023-05-21T07:26:14;9.03;;;7.07;;
19043;SDS011;9654;52.302;8.120;2023-05-21T07:28:44;9.53;;;7.20;;
19043;SDS011;9654;52.302;8.120;2023-05-21T07:31:12;10.43;;;7.53;;
19043;SDS011;9654;52.302;8.120;2023-05-21T07:33:39;10.53;;;6.90;;
19043;SDS011;9654;52.302;8.120;2023-05-21T07:36:06;9.73;;;7.10;;
19043;SDS011;9654;52.302;8.120;2023-05-21T07:38:34;10.83;;;7.57;;
19043;SDS011;9654;52.302;8.120;2023-05-21T07:41:03;13.27;;;7.33;;
19043;SDS011;9654;52.302;8.120;2023-05-21T07:43:30;9.30;;;7.30;;
19043;SDS011;9654;52.302;8.120;2023-05-21T07:45:58;12.63;;;7.10;;
19043;SDS011;9654;52.302;8.120;2023-05-21T07:48:24;13.30;;;7.40;;
19043;SDS011;9654;52.302;8.120;2023-05-21T07:50:55;10.53;;;7.50;;
19043;SDS011;9654;52.302;8.120;2023-05-21T07:53:22;10.37;;;7.00;;
19043;SDS011;9654;52.302;8.120;2023-05-21T07:55:49;11.23;;;6.83;;
19043;SDS011;9654;52.302;8.120;2023-05-21T07:58:17;10.20;;;7.03;;
19043;SDS011;9654;52.302;8.120;2023-05-21T08:00:46;11.00;;;7.57;;
19043;SDS011;9654;52.302;8.120;2023-05-21T08:03:13;13.53;;;8.30;;
19043;SDS011;9654;52.302;8.120;2023-05-21T08:05:41;12.73;;;7.83;;
19043;SDS011;9654;52.302;8.120;2023-05-21T08:08:12;11.87;;;7.90;;
19043;SDS011;9654;52.302;8.120;2023-05-21T08:10:39;9.53;;;7.30;;
19043;SDS011;9654;52.302;8.120;2023-05-21T08:13:05;9.40;;;7.53;;
19043;SDS011;9654;52.302;8.120;2023-05-21T08:15:33;11.00;;;6.93;;
19043;SDS011;9654;52.302;8.120;2023-05-21T08:18:00;10.57;;;7.43;;
19043;SDS011;9654;52.302;8.120;2023-05-21T08:20:27;12.20;;;7.87;;
19043;SDS011;9654;52.302;8.120;2023-05-21T08:22:54;12.27;;;8.37;;
19043;SDS011;9654;52.302;8.120;2023-05-21T08:25:21;14.57;;;9.07;;
19043;SDS011;9654;52.302;8.120;2023-05-21T08:27:49;13.13;;;8.73;;
19043;SDS011;9654;52.302;8.120;2023-05-21T08:30:16;14.47;;;8.27;;
19043;SDS011;9654;52.302;8.120;2023-05-21T08:32:44;12.90;;;8.10;;
19043;SDS011;9654;52.302;8.120;2023-05-21T08:35:11;14.70;;;9.17;;
19043;SDS011;9654;52.302;8.120;2023-05-21T08:37:37;12.07;;;9.40;;
19043;SDS011;9654;52.302;8.120;2023-05-21T08:40:04;13.27;;;9.57;;
19043;SDS011;9654;52.302;8.120;2023-05-21T08:42:35;12.73;;;9.27;;
19043;SDS011;9654;52.302;8.120;2023-05-21T08:45:05;13.33;;;9.80;;
19043;SDS011;9654;52.302;8.120;2023-05-21T08:47:34;12.53;;;9.50;;
19043;SDS011;9654;52.302;8.120;2023-05-21T08:50:03;14.77;;;10.27;;
19043;SDS011;9654;52.302;8.120;2023-05-21T08:52:33;15.40;;;10.10;;
19043;SDS011;9654;52.302;8.120;2023-05-21T08:55:00;14.70;;;10.13;;
19043;SDS011;9654;52.302;8.120;2023-05-21T08:57:29;15.17;;;10.50;;
19043;SDS011;9654;52.302;8.120;2023-05-21T08:59:56;15.30;;;9.63;;
19043;SDS011;9654;52.302;8.120;2023-05-21T09:02:23;15.37;;;10.77;;
19043;SDS011;9654;52.302;8.120;2023-05-21T09:04:50;17.43;;;10.60;;
19043;SDS011;9654;52.302;8.120;2023-05-21T09:07:23;15.93;;;11.10;;
19043;SDS011;9654;52.302;8.120;2023-05-21T09:09:52;15.07;;;11.20;;
19043;SDS011;9654;52.302;8.120;2023-05-21T09:12:21;17.60;;;11.37;;
19043;SDS011;9654;52.302;8.120;2023-05-21T09:14:49;17.63;;;11.13;;
19043;SDS011;9654;52.302;8.120;2023-05-21T09:17:16;15.50;;;10.60;;
19043;SDS011;9654;52.302;8.120;2023-05-21T09:20:03;15.90;;;10.60;;
19043;SDS011;9654;52.302;8.120;2023-05-21T09:22:34;13.03;;;9.97;;
19043;SDS011;9654;52.302;8.120;2023-05-21T09:25:03;14.10;;;9.47;;
19043;SDS011;9654;52.302;8.120;2023-05-21T09:27:31;13.83;;;9.97;;
19043;SDS011;9654;52.302;8.120;2023-05-21T09:29:58;15.07;;;10.60;;
19043;SDS011;9654;52.302;8.120;2023-05-21T09:32:25;19.10;;;11.73;;
19043;SDS011;9654;52.302;8.120;2023-05-21T09:34:52;15.93;;;11.50;;
19043;SDS011;9654;52.302;8.120;2023-05-21T09:37:18;27.27;;;12.27;;
19043;SDS011;9654;52.302;8.120;2023-05-21T09:39:48;18.20;;;13.07;;
19043;SDS011;9654;52.302;8.120;2023-05-21T09:42:14;20.57;;;13.03;;
19043;SDS011;9654;52.302;8.120;2023-05-21T09:44:46;18.37;;;12.97;;
19043;SDS011;9654;52.302;8.120;2023-05-21T09:47:12;18.47;;;12.20;;
19043;SDS011;9654;52.302;8.120;2023-05-21T09:49:45;19.93;;;12.40;;
19043;SDS011;9654;52.302;8.120;2023-05-21T09:52:12;20.27;;;13.13;;
19043;SDS011;9654;52.302;8.120;2023-05-21T09:54:38;20.13;;;13.17;;
19043;SDS011;9654;52.302;8.120;2023-05-21T09:57:07;18.67;;;12.37;;
19043;SDS011;9654;52.302;8.120;2023-05-21T09:59:37;19.13;;;13.30;;
19043;SDS011;9654;52.302;8.120;2023-05-21T10:02:12;22.00;;;15.00;;
19043;SDS011;9654;52.302;8.120;2023-05-21T10:04:42;19.57;;;13.23;;
19043;SDS011;9654;52.302;8.120;2023-05-21T10:07:13;21.03;;;12.70;;
19043;SDS011;9654;52.302;8.120;2023-05-21T10:09:42;20.70;;;13.00;;
19043;SDS011;9654;52.302;8.120;2023-05-21T10:12:13;20.17;;;13.07;;
19043;SDS011;9654;52.302;8.120;2023-05-21T10:14:42;19.80;;;13.03;;
19043;SDS011;9654;52.302;8.120;2023-05-21T10:17:11;19.90;;;13.63;;
19043;SDS011;9654;52.302;8.120;2023-05-21T10:19:39;22.53;;;14.97;;
19043;SDS011;9654;52.302;8.120;2023-05-21T10:22:07;21.13;;;13.47;;
19043;SDS011;9654;52.302;8.120;2023-05-21T10:24:34;20.23;;;13.17;;
19043;SDS011;9654;52.302;8.120;2023-05-21T10:27:03;17.87;;;12.90;;
19043;SDS011;9654;52.302;8.120;2023-05-21T10:29:32;21.53;;;13.53;;
19043;SDS011;9654;52.302;8.120;2023-05-21T10:32:00;17.97;;;12.97;;
19043;SDS011;9654;52.302;8.120;2023-05-21T10:34:27;19.53;;;13.77;;
19043;SDS011;9654;52.302;8.120;2023-05-21T10:36:56;19.17;;;13.30;;
19043;SDS011;9654;52.302;8.120;2023-05-21T10:39:26;21.50;;;14.90;;
19043;SDS011;9654;52.302;8.120;2023-05-21T10:41:57;20.33;;;14.63;;
19043;SDS011;9654;52.302;8.120;2023-05-21T10:44:37;21.03;;;13.70;;
19043;SDS011;9654;52.302;8.120;2023-05-21T10:47:31;20.60;;;14.00;;
19043;SDS011;9654;52.302;8.120;2023-05-21T10:50:39;19.77;;;12.17;;
19043;SDS011;9654;52.302;8.120;2023-05-21T10:53:19;20.57;;;14.67;;
19043;SDS011;9654;52.302;8.120;2023-05-21T10:55:53;18.80;;;13.53;;
19043;SDS011;9654;52.302;8.120;2023-05-21T11:01:22;23.00;;;14.13;;
19043;SDS011;9654;52.302;8.120;2023-05-21T11:03:52;20.00;;;14.47;;
19043;SDS011;9654;52.302;8.120;2023-05-21T11:06:21;19.90;;;13.20;;
19043;SDS011;9654;52.302;8.120;2023-05-21T11:08:50;21.17;;;13.40;;
19043;SDS011;9654;52.302;8.120;2023-05-21T11:17:00;22.07;;;14.27;;
19043;SDS011;9654;52.302;8.120;2023-05-21T11:19:35;20.60;;;13.43;;
19043;SDS011;9654;52.302;8.120;2023-05-21T11:22:06;19.80;;;13.80;;
19043;SDS011;9654;52.302;8.120;2023-05-21T11:24:39;21.30;;;12.93;;
19043;SDS011;9654;52.302;8.120;2023-05-21T11:27:06;20.90;;;13.97;;
19043;SDS011;9654;52.302;8.120;2023-05-21T11:29:40;18.50;;;13.27;;
19043;SDS011;9654;52.302;8.120;2023-05-21T11:32:10;19.40;;;13.40;;
19043;SDS011;9654;52.302;8.120;2023-05-21T11:34:39;19.17;;;14.10;;
19043;SDS011;9654;52.302;8.120;2023-05-21T11:37:22;18.23;;;14.10;;
19043;SDS011;9654;52.302;8.120;2023-05-21T11:40:15;19.33;;;13.50;;
19043;SDS011;9654;52.302;8.120;2023-05-21T11:42:49;21.27;;;14.03;;
19043;SDS011;9654;52.302;8.120;2023-05-21T11:45:17;21.63;;;14.37;;
19043;SDS011;9654;52.302;8.120;2023-05-21T11:47:46;19.63;;;14.30;;
19043;SDS011;9654;52.302;8.120;2023-05-21T11:50:14;19.13;;;13.60;;
19043;SDS011;9654;52.302;8.120;2023-05-21T11:52:42;19.98;;;13.57;;
19043;SDS011;9654;52.302;8.120;2023-05-21T11:55:09;21.67;;;14.50;;
19043;SDS011;9654;52.302;8.120;2023-05-21T11:57:36;24.70;;;14.18;;
19043;SDS011;9654;52.302;8.120;2023-05-21T12:00:11;17.17;;;14.27;;
19043;SDS011;9654;52.302;8.120;2023-05-21T12:02:42;20.25;;;14.48;;
19043;SDS011;9654;52.302;8.120;2023-05-21T12:05:12;22.50;;;15.23;;
19043;SDS011;9654;52.302;8.120;2023-05-21T12:07:39;18.00;;;13.93;;
19043;SDS011;9654;52.302;8.120;2023-05-21T12:10:06;17.10;;;13.82;;
19043;SDS011;9654;52.302;8.120;2023-05-21T12:12:34;20.05;;;14.07;;
19043;SDS011;9654;52.302;8.120;2023-05-21T12:15:01;20.25;;;13.77;;
19043;SDS011;9654;52.302;8.120;2023-05-21T12:17:29;38.95;;;15.13;;
19043;SDS011;9654;52.302;8.120;2023-05-21T12:19:56;19.60;;;13.95;;
19043;SDS011;9654;52.302;8.120;2023-05-21T12:22:25;19.52;;;14.18;;
19043;SDS011;9654;52.302;8.120;2023-05-21T12:24:53;20.95;;;14.88;;
19043;SDS011;9654;52.302;8.120;2023-05-21T12:27:22;21.52;;;13.80;;
19043;SDS011;9654;52.302;8.120;2023-05-21T12:29:49;20.73;;;14.48;;
19043;SDS011;9654;52.302;8.120;2023-05-21T12:32:16;20.13;;;13.80;;
19043;SDS011;9654;52.302;8.120;2023-05-21T12:34:46;19.23;;;13.50;;
19043;SDS011;9654;52.302;8.120;2023-05-21T12:37:14;21.70;;;13.38;;
19043;SDS011;9654;52.302;8.120;2023-05-21T12:39:44;17.38;;;13.25;;
19043;SDS011;9654;52.302;8.120;2023-05-21T12:42:12;16.75;;;12.70;;
19043;SDS011;9654;52.302;8.120;2023-05-21T12:44:40;17.52;;;12.88;;
19043;SDS011;9654;52.302;8.120;2023-05-21T12:47:10;18.85;;;13.50;;
19043;SDS011;9654;52.302;8.120;2023-05-21T12:49:38;14.52;;;12.13;;
19043;SDS011;9654;52.302;8.120;2023-05-21T12:52:07;17.00;;;13.20;;
19043;SDS011;9654;52.302;8.120;2023-05-21T12:54:37;17.20;;;12.93;;
19043;SDS011;9654;52.302;8.120;2023-05-21T12:57:06;15.98;;;13.18;;
19043;SDS011;9654;52.302;8.120;2023-05-21T12:59:44;17.30;;;12.98;;
19043;SDS011;9654;52.302;8.120;2023-05-21T13:02:15;18.13;;;12.50;;
19043;SDS011;9654;52.302;8.120;2023-05-21T13:04:47;21.67;;;12.48;;
19043;SDS011;9654;52.302;8.120;2023-05-21T13:07:14;14.38;;;12.27;;
19043;SDS011;9654;52.302;8.120;2023-05-21T13:09:41;16.40;;;11.73;;
19043;SDS011;9654;52.302;8.120;2023-05-21T13:12:09;17.27;;;12.90;;
19043;SDS011;9654;52.302;8.120;2023-05-21T13:14:36;14.98;;;12.05;;
19043;SDS011;9654;52.302;8.120;2023-05-21T13:17:03;18.85;;;13.40;;
19043;SDS011;9654;52.302;8.120;2023-05-21T13:19:30;15.02;;;11.65;;
19043;SDS011;9654;52.302;8.120;2023-05-21T13:21:57;15.90;;;12.32;;
19043;SDS011;9654;52.302;8.120;2023-05-21T13:24:23;15.25;;;12.05;;
19043;SDS011;9654;52.302;8.120;2023-05-21T13:26:50;16.40;;;12.13;;
19043;SDS011;9654;52.302;8.120;2023-05-21T13:29:18;19.42;;;13.07;;
19043;SDS011;9654;52.302;8.120;2023-05-21T13:31:45;16.08;;;12.68;;
19043;SDS011;9654;52.302;8.120;2023-05-21T13:34:12;19.08;;;13.48;;
19043;SDS011;9654;52.302;8.120;2023-05-21T13:36:39;17.38;;;13.43;;
19043;SDS011;9654;52.302;8.120;2023-05-21T13:39:06;14.60;;;12.55;;
19043;SDS011;9654;52.302;8.120;2023-05-21T13:41:33;16.67;;;13.25;;
19043;SDS011;9654;52.302;8.120;2023-05-21T13:44:00;16.27;;;12.57;;
19043;SDS011;9654;52.302;8.120;2023-05-21T13:46:28;18.45;;;12.85;;
19043;SDS011;9654;52.302;8.120;2023-05-21T13:48:55;18.08;;;13.07;;
19043;SDS011;9654;52.302;8.120;2023-05-21T13:51:21;14.85;;;11.70;;
19043;SDS011;9654;52.302;8.120;2023-05-21T13:53:48;14.55;;;11.73;;
19043;SDS011;9654;52.302;8.120;2023-05-21T13:56:15;18.88;;;13.13;;
19043;SDS011;9654;52.302;8.120;2023-05-21T13:58:42;14.93;;;12.55;;
19043;SDS011;9654;52.302;8.120;2023-05-21T14:01:08;18.85;;;12.77;;
19043;SDS011;9654;52.302;8.120;2023-05-21T14:03:37;17.45;;;12.57;;
19043;SDS011;9654;52.302;8.120;2023-05-21T14:06:04;19.73;;;13.40;;
19043;SDS011;9654;52.302;8.120;2023-05-21T14:08:32;16.48;;;13.45;;
19043;SDS011;9654;52.302;8.120;2023-05-21T14:10:59;14.35;;;12.38;;
19043;SDS011;9654;52.302;8.120;2023-05-21T14:13:25;17.40;;;13.52;;
19043;SDS011;9654;52.302;8.120;2023-05-21T14:15:52;15.30;;;13.23;;
19043;SDS011;9654;52.302;8.120;2023-05-21T14:18:19;16.63;;;13.27;;
19043;SDS011;9654;52.302;8.120;2023-05-21T14:20:47;19.42;;;13.88;;
19043;SDS011;9654;52.302;8.120;2023-05-21T14:23:14;18.00;;;13.18;;
19043;SDS011;9654;52.302;8.120;2023-05-21T14:25:41;15.30;;;13.55;;
19043;SDS011;9654;52.302;8.120;2023-05-21T14:28:08;19.98;;;13.70;;
19043;SDS011;9654;52.302;8.120;2023-05-21T14:30:35;16.35;;;13.20;;
19043;SDS011;9654;52.302;8.120;2023-05-21T14:33:01;18.05;;;13.52;;
19043;SDS011;9654;52.302;8.120;2023-05-21T14:35:29;17.70;;;13.75;;
19043;SDS011;9654;52.302;8.120;2023-05-21T14:37:57;19.05;;;13.45;;
19043;SDS011;9654;52.302;8.120;2023-05-21T14:40:23;18.55;;;13.30;;
19043;SDS011;9654;52.302;8.120;2023-05-21T14:42:50;20.30;;;13.45;;
19043;SDS011;9654;52.302;8.120;2023-05-21T14:45:18;16.08;;;12.73;;
19043;SDS011;9654;52.302;8.120;2023-05-21T14:47:45;17.50;;;13.10;;
19043;SDS011;9654;52.302;8.120;2023-05-21T14:50:13;14.32;;;12.57;;
19043;SDS011;9654;52.302;8.120;2023-05-21T14:52:41;20.48;;;12.50;;
19043;SDS011;9654;52.302;8.120;2023-05-21T14:55:09;17.05;;;13.20;;
19043;SDS011;9654;52.302;8.120;2023-05-21T14:57:37;16.98;;;13.15;;
19043;SDS011;9654;52.302;8.120;2023-05-21T15:00:05;15.65;;;12.48;;